sensor_id;sensor_type;location;lat;lon;timestamp;P1;durP1;ratioP1;P2;durP2;ratioP2
59300;SDS011;45073;52.740;6.784;2022-08-16T00:01:43;22.77;;;20.58;;
59300;SDS011;45073;52.740;6.784;2022-08-16T00:04:09;22.65;;;20.42;;
59300;SDS011;45073;52.740;6.784;2022-08-16T00:06:35;20.00;;;18.08;;
59300;SDS011;45073;52.740;6.784;2022-08-16T00:09:01;22.95;;;20.67;;
59300;SDS011;45073;52.740;6.784;2022-08-16T00:11:26;20.27;;;18.38;;
59300;SDS011;45073;52.740;6.784;2022-08-16T00:13:52;20.45;;;18.48;;
59300;SDS011;45073;52.740;6.784;2022-08-16T00:16:18;21.90;;;19.90;;
59300;SDS011;45073;52.740;6.784;2022-08-16T00:18:43;20.70;;;18.75;;
59300;SDS011;45073;52.740;6.784;2022-08-16T00:21:09;20.23;;;18.33;;
59300;SDS011;45073;52.740;6.784;2022-08-16T00:23:35;20.90;;;18.80;;
59300;SDS011;45073;52.740;6.784;2022-08-16T00:26:01;20.23;;;18.23;;
59300;SDS011;45073;52.740;6.784;2022-08-16T00:28:26;20.27;;;18.27;;
59300;SDS011;45073;52.740;6.784;2022-08-16T00:30:52;20.95;;;18.85;;
59300;SDS011;45073;52.740;6.784;2022-08-16T00:33:17;21.92;;;19.60;;
59300;SDS011;45073;52.740;6.784;2022-08-16T00:35:43;21.63;;;19.23;;
59300;SDS011;45073;52.740;6.784;2022-08-16T00:38:10;22.25;;;20.25;;
59300;SDS011;45073;52.740;6.784;2022-08-16T00:40:42;22.75;;;20.55;;
59300;SDS011;45073;52.740;6.784;2022-08-16T00:43:16;20.70;;;18.90;;
59300;SDS011;45073;52.740;6.784;2022-08-16T00:48:35;22.75;;;20.52;;
59300;SDS011;45073;52.740;6.784;2022-08-16T00:51:02;20.27;;;18.38;;
59300;SDS011;45073;52.740;6.784;2022-08-16T00:53:28;22.75;;;20.73;;
59300;SDS011;45073;52.740;6.784;2022-08-16T00:55:56;24.00;;;21.65;;
59300;SDS011;45073;52.740;6.784;2022-08-16T00:58:26;22.35;;;20.35;;
59300;SDS011;45073;52.740;6.784;2022-08-16T01:00:55;24.48;;;22.08;;
59300;SDS011;45073;52.740;6.784;2022-08-16T01:03:21;23.77;;;21.58;;
59300;SDS011;45073;52.740;6.784;2022-08-16T01:05:49;24.20;;;21.95;;
59300;SDS011;45073;52.740;6.784;2022-08-16T01:08:16;21.90;;;19.90;;
59300;SDS011;45073;52.740;6.784;2022-08-16T01:10:44;23.73;;;21.55;;
59300;SDS011;45073;52.740;6.784;2022-08-16T01:13:11;23.63;;;21.42;;
59300;SDS011;45073;52.740;6.784;2022-08-16T01:15:40;23.08;;;20.90;;
59300;SDS011;45073;52.740;6.784;2022-08-16T01:18:11;25.17;;;22.88;;
59300;SDS011;45073;52.740;6.784;2022-08-16T01:20:47;22.90;;;20.90;;
59300;SDS011;45073;52.740;6.784;2022-08-16T01:23:21;23.15;;;21.05;;
59300;SDS011;45073;52.740;6.784;2022-08-16T01:25:53;22.08;;;20.15;;
59300;SDS011;45073;52.740;6.784;2022-08-16T01:28:19;22.30;;;20.13;;
59300;SDS011;45073;52.740;6.784;2022-08-16T01:30:50;21.80;;;19.88;;
59300;SDS011;45073;52.740;6.784;2022-08-16T01:33:19;21.75;;;19.67;;
59300;SDS011;45073;52.740;6.784;2022-08-16T01:35:53;22.52;;;20.27;;
59300;SDS011;45073;52.740;6.784;2022-08-16T01:38:28;23.42;;;21.33;;
59300;SDS011;45073;52.740;6.784;2022-08-16T01:40:58;25.05;;;22.60;;
59300;SDS011;45073;52.740;6.784;2022-08-16T01:43:36;25.88;;;23.15;;
59300;SDS011;45073;52.740;6.784;2022-08-16T01:46:04;25.17;;;22.83;;
59300;SDS011;45073;52.740;6.784;2022-08-16T01:48:31;25.48;;;23.00;;
59300;SDS011;45073;52.740;6.784;2022-08-16T01:50:58;25.00;;;22.70;;
59300;SDS011;45073;52.740;6.784;2022-08-16T01:53:26;25.88;;;23.48;;
59300;SDS011;45073;52.740;6.784;2022-08-16T01:55:53;26.10;;;23.52;;
59300;SDS011;45073;52.740;6.784;2022-08-16T01:58:18;25.58;;;22.95;;
59300;SDS011;45073;52.740;6.784;2022-08-16T02:00:46;25.23;;;22.83;;
59300;SDS011;45073;52.740;6.784;2022-08-16T02:03:15;25.95;;;23.75;;
59300;SDS011;45073;52.740;6.784;2022-08-16T02:05:41;27.17;;;24.67;;
59300;SDS011;45073;52.740;6.784;2022-08-16T02:08:07;28.25;;;25.65;;
59300;SDS011;45073;52.740;6.784;2022-08-16T02:10:34;27.00;;;24.50;;
59300;SDS011;45073;52.740;6.784;2022-08-16T02:13:03;26.55;;;24.00;;
59300;SDS011;45073;52.740;6.784;2022-08-16T02:15:31;27.48;;;24.98;;
59300;SDS011;45073;52.740;6.784;2022-08-16T02:17:58;27.40;;;24.98;;
59300;SDS011;45073;52.740;6.784;2022-08-16T02:20:25;27.25;;;24.80;;
59300;SDS011;45073;52.740;6.784;2022-08-16T02:22:52;27.70;;;25.30;;
59300;SDS011;45073;52.740;6.784;2022-08-16T02:25:19;30.13;;;27.40;;
59300;SDS011;45073;52.740;6.784;2022-08-16T02:27:45;28.17;;;25.60;;
59300;SDS011;45073;52.740;6.784;2022-08-16T02:30:12;29.17;;;26.75;;
59300;SDS011;45073;52.740;6.784;2022-08-16T02:32:41;28.98;;;26.38;;
59300;SDS011;45073;52.740;6.784;2022-08-16T02:35:07;30.70;;;27.92;;
59300;SDS011;45073;52.740;6.784;2022-08-16T02:37:33;29.45;;;26.65;;
59300;SDS011;45073;52.740;6.784;2022-08-16T02:39:59;29.85;;;27.20;;
59300;SDS011;45073;52.740;6.784;2022-08-16T02:42:25;29.98;;;27.45;;
59300;SDS011;45073;52.740;6.784;2022-08-16T02:44:50;30.33;;;27.65;;
59300;SDS011;45073;52.740;6.784;2022-08-16T02:47:16;28.95;;;26.15;;
59300;SDS011;45073;52.740;6.784;2022-08-16T02:49:41;29.80;;;27.10;;
59300;SDS011;45073;52.740;6.784;2022-08-16T02:52:08;29.42;;;26.77;;
59300;SDS011;45073;52.740;6.784;2022-08-16T02:54:34;29.42;;;26.58;;
59300;SDS011;45073;52.740;6.784;2022-08-16T02:57:00;30.20;;;27.60;;
59300;SDS011;45073;52.740;6.784;2022-08-16T02:59:26;28.35;;;25.92;;
59300;SDS011;45073;52.740;6.784;2022-08-16T03:01:51;28.08;;;25.77;;
59300;SDS011;45073;52.740;6.784;2022-08-16T03:04:17;29.02;;;26.50;;
59300;SDS011;45073;52.740;6.784;2022-08-16T03:06:44;30.50;;;27.83;;
59300;SDS011;45073;52.740;6.784;2022-08-16T03:09:09;31.58;;;28.75;;
59300;SDS011;45073;52.740;6.784;2022-08-16T03:11:35;31.25;;;28.45;;
59300;SDS011;45073;52.740;6.784;2022-08-16T03:14:01;31.40;;;28.50;;
59300;SDS011;45073;52.740;6.784;2022-08-16T03:16:27;29.60;;;26.90;;
59300;SDS011;45073;52.740;6.784;2022-08-16T03:18:53;30.10;;;27.30;;
59300;SDS011;45073;52.740;6.784;2022-08-16T03:21:19;31.40;;;28.42;;
59300;SDS011;45073;52.740;6.784;2022-08-16T03:23:45;30.33;;;27.52;;
59300;SDS011;45073;52.740;6.784;2022-08-16T03:26:11;29.98;;;27.30;;
59300;SDS011;45073;52.740;6.784;2022-08-16T03:28:37;31.85;;;29.05;;
59300;SDS011;45073;52.740;6.784;2022-08-16T03:31:03;30.42;;;27.80;;
59300;SDS011;45073;52.740;6.784;2022-08-16T03:33:31;31.33;;;28.30;;
59300;SDS011;45073;52.740;6.784;2022-08-16T03:35:56;30.48;;;27.75;;
59300;SDS011;45073;52.740;6.784;2022-08-16T03:38:24;32.13;;;29.25;;
59300;SDS011;45073;52.740;6.784;2022-08-16T03:40:51;31.10;;;28.45;;
59300;SDS011;45073;52.740;6.784;2022-08-16T03:43:17;30.27;;;27.50;;
59300;SDS011;45073;52.740;6.784;2022-08-16T03:45:42;32.13;;;29.05;;
59300;SDS011;45073;52.740;6.784;2022-08-16T03:48:08;32.72;;;29.67;;
59300;SDS011;45073;52.740;6.784;2022-08-16T03:50:34;34.45;;;31.40;;
59300;SDS011;45073;52.740;6.784;2022-08-16T03:53:01;34.63;;;31.73;;
59300;SDS011;45073;52.740;6.784;2022-08-16T03:55:28;33.40;;;30.30;;
59300;SDS011;45073;52.740;6.784;2022-08-16T03:57:54;33.88;;;30.83;;
59300;SDS011;45073;52.740;6.784;2022-08-16T04:00:22;33.10;;;30.30;;
59300;SDS011;45073;52.740;6.784;2022-08-16T04:02:49;32.80;;;29.80;;
59300;SDS011;45073;52.740;6.784;2022-08-16T04:05:16;33.08;;;30.27;;
59300;SDS011;45073;52.740;6.784;2022-08-16T04:07:42;34.50;;;31.50;;
59300;SDS011;45073;52.740;6.784;2022-08-16T04:10:09;33.15;;;30.10;;
59300;SDS011;45073;52.740;6.784;2022-08-16T04:12:37;33.10;;;30.13;;
59300;SDS011;45073;52.740;6.784;2022-08-16T04:15:04;33.67;;;30.83;;
59300;SDS011;45073;52.740;6.784;2022-08-16T04:17:31;33.10;;;30.17;;
59300;SDS011;45073;52.740;6.784;2022-08-16T04:19:57;29.52;;;26.92;;
59300;SDS011;45073;52.740;6.784;2022-08-16T04:22:23;30.88;;;27.95;;
59300;SDS011;45073;52.740;6.784;2022-08-16T04:24:49;31.95;;;28.92;;
59300;SDS011;45073;52.740;6.784;2022-08-16T04:27:16;30.00;;;27.33;;
59300;SDS011;45073;52.740;6.784;2022-08-16T04:29:42;31.25;;;28.27;;
59300;SDS011;45073;52.740;6.784;2022-08-16T04:32:07;31.20;;;28.25;;
59300;SDS011;45073;52.740;6.784;2022-08-16T04:34:34;30.35;;;27.58;;
59300;SDS011;45073;52.740;6.784;2022-08-16T04:37:01;29.85;;;27.25;;
59300;SDS011;45073;52.740;6.784;2022-08-16T04:39:28;29.55;;;26.95;;
59300;SDS011;45073;52.740;6.784;2022-08-16T04:41:55;29.92;;;27.23;;
59300;SDS011;45073;52.740;6.784;2022-08-16T04:44:21;29.70;;;26.90;;
59300;SDS011;45073;52.740;6.784;2022-08-16T04:46:46;27.85;;;25.23;;
59300;SDS011;45073;52.740;6.784;2022-08-16T04:49:12;29.33;;;26.40;;
59300;SDS011;45073;52.740;6.784;2022-08-16T04:51:38;28.92;;;26.17;;
59300;SDS011;45073;52.740;6.784;2022-08-16T04:54:06;30.55;;;27.60;;
59300;SDS011;45073;52.740;6.784;2022-08-16T04:56:33;29.10;;;26.25;;
59300;SDS011;45073;52.740;6.784;2022-08-16T04:58:59;28.70;;;26.08;;
59300;SDS011;45073;52.740;6.784;2022-08-16T05:01:26;27.63;;;25.17;;
59300;SDS011;45073;52.740;6.784;2022-08-16T05:03:51;28.52;;;25.95;;
59300;SDS011;45073;52.740;6.784;2022-08-16T05:06:17;29.65;;;26.75;;
59300;SDS011;45073;52.740;6.784;2022-08-16T05:08:43;27.95;;;25.27;;
59300;SDS011;45073;52.740;6.784;2022-08-16T05:11:10;28.70;;;26.00;;
59300;SDS011;45073;52.740;6.784;2022-08-16T05:13:39;30.15;;;27.27;;
59300;SDS011;45073;52.740;6.784;2022-08-16T05:16:06;29.45;;;26.55;;
59300;SDS011;45073;52.740;6.784;2022-08-16T05:18:37;28.83;;;26.25;;
59300;SDS011;45073;52.740;6.784;2022-08-16T05:21:03;29.50;;;26.77;;
59300;SDS011;45073;52.740;6.784;2022-08-16T05:23:29;27.88;;;25.30;;
59300;SDS011;45073;52.740;6.784;2022-08-16T05:25:54;30.42;;;27.40;;
59300;SDS011;45073;52.740;6.784;2022-08-16T05:28:20;28.65;;;25.95;;
59300;SDS011;45073;52.740;6.784;2022-08-16T05:30:45;30.10;;;27.20;;
59300;SDS011;45073;52.740;6.784;2022-08-16T05:33:11;30.17;;;27.38;;
59300;SDS011;45073;52.740;6.784;2022-08-16T05:35:37;28.25;;;25.45;;
59300;SDS011;45073;52.740;6.784;2022-08-16T05:38:03;31.35;;;28.38;;
59300;SDS011;45073;52.740;6.784;2022-08-16T05:40:29;30.10;;;27.30;;
59300;SDS011;45073;52.740;6.784;2022-08-16T05:42:54;28.08;;;25.52;;
59300;SDS011;45073;52.740;6.784;2022-08-16T05:45:20;29.20;;;26.30;;
59300;SDS011;45073;52.740;6.784;2022-08-16T05:47:46;27.65;;;25.05;;
59300;SDS011;45073;52.740;6.784;2022-08-16T05:50:11;28.08;;;25.35;;
59300;SDS011;45073;52.740;6.784;2022-08-16T05:52:37;28.15;;;25.45;;
59300;SDS011;45073;52.740;6.784;2022-08-16T05:55:03;26.83;;;24.23;;
59300;SDS011;45073;52.740;6.784;2022-08-16T05:57:29;27.77;;;24.98;;
59300;SDS011;45073;52.740;6.784;2022-08-16T05:59:55;27.38;;;24.90;;
59300;SDS011;45073;52.740;6.784;2022-08-16T06:02:21;27.48;;;25.00;;
59300;SDS011;45073;52.740;6.784;2022-08-16T06:04:51;25.67;;;23.13;;
59300;SDS011;45073;52.740;6.784;2022-08-16T06:07:17;27.13;;;24.52;;
59300;SDS011;45073;52.740;6.784;2022-08-16T06:09:42;27.38;;;24.60;;
59300;SDS011;45073;52.740;6.784;2022-08-16T06:12:08;28.38;;;25.50;;
59300;SDS011;45073;52.740;6.784;2022-08-16T06:14:35;25.85;;;23.45;;
59300;SDS011;45073;52.740;6.784;2022-08-16T06:17:00;27.50;;;24.88;;
59300;SDS011;45073;52.740;6.784;2022-08-16T06:19:26;25.58;;;23.10;;
59300;SDS011;45073;52.740;6.784;2022-08-16T06:21:52;24.92;;;22.73;;
59300;SDS011;45073;52.740;6.784;2022-08-16T06:24:17;25.60;;;23.05;;
59300;SDS011;45073;52.740;6.784;2022-08-16T06:26:43;24.92;;;22.55;;
59300;SDS011;45073;52.740;6.784;2022-08-16T06:29:09;25.02;;;22.52;;
59300;SDS011;45073;52.740;6.784;2022-08-16T06:31:34;24.52;;;22.23;;
59300;SDS011;45073;52.740;6.784;2022-08-16T06:34:00;20.27;;;18.30;;
59300;SDS011;45073;52.740;6.784;2022-08-16T06:36:26;19.50;;;17.60;;
59300;SDS011;45073;52.740;6.784;2022-08-16T06:38:53;19.98;;;18.00;;
59300;SDS011;45073;52.740;6.784;2022-08-16T06:41:18;20.60;;;18.67;;
59300;SDS011;45073;52.740;6.784;2022-08-16T06:43:44;20.63;;;18.52;;
59300;SDS011;45073;52.740;6.784;2022-08-16T06:46:20;20.70;;;18.60;;
59300;SDS011;45073;52.740;6.784;2022-08-16T06:48:51;20.60;;;18.50;;
59300;SDS011;45073;52.740;6.784;2022-08-16T06:51:17;21.08;;;19.08;;
59300;SDS011;45073;52.740;6.784;2022-08-16T06:53:42;21.20;;;19.15;;
59300;SDS011;45073;52.740;6.784;2022-08-16T06:56:08;22.50;;;20.20;;
59300;SDS011;45073;52.740;6.784;2022-08-16T06:58:34;22.23;;;19.55;;
59300;SDS011;45073;52.740;6.784;2022-08-16T07:01:00;21.92;;;19.73;;
59300;SDS011;45073;52.740;6.784;2022-08-16T07:03:27;22.05;;;19.83;;
59300;SDS011;45073;52.740;6.784;2022-08-16T07:05:54;22.58;;;20.00;;
59300;SDS011;45073;52.740;6.784;2022-08-16T07:08:24;23.33;;;19.50;;
59300;SDS011;45073;52.740;6.784;2022-08-16T07:10:51;22.58;;;20.38;;
59300;SDS011;45073;52.740;6.784;2022-08-16T07:13:17;22.33;;;20.02;;
59300;SDS011;45073;52.740;6.784;2022-08-16T07:15:44;22.88;;;20.67;;
59300;SDS011;45073;52.740;6.784;2022-08-16T07:18:10;22.88;;;20.67;;
59300;SDS011;45073;52.740;6.784;2022-08-16T07:20:37;22.17;;;19.90;;
59300;SDS011;45073;52.740;6.784;2022-08-16T07:23:03;23.45;;;21.05;;
59300;SDS011;45073;52.740;6.784;2022-08-16T07:25:30;23.15;;;20.85;;
59300;SDS011;45073;52.740;6.784;2022-08-16T07:27:56;23.83;;;21.35;;
59300;SDS011;45073;52.740;6.784;2022-08-16T07:30:22;24.38;;;21.98;;
59300;SDS011;45073;52.740;6.784;2022-08-16T07:32:49;25.27;;;22.80;;
59300;SDS011;45073;52.740;6.784;2022-08-16T07:35:15;25.80;;;23.02;;
59300;SDS011;45073;52.740;6.784;2022-08-16T07:37:41;26.83;;;24.13;;
59300;SDS011;45073;52.740;6.784;2022-08-16T07:40:07;26.35;;;23.77;;
59300;SDS011;45073;52.740;6.784;2022-08-16T07:42:33;25.30;;;22.90;;
59300;SDS011;45073;52.740;6.784;2022-08-16T07:44:59;26.60;;;24.02;;
59300;SDS011;45073;52.740;6.784;2022-08-16T07:47:24;25.88;;;23.30;;
59300;SDS011;45073;52.740;6.784;2022-08-16T07:49:50;28.05;;;25.30;;
59300;SDS011;45073;52.740;6.784;2022-08-16T07:52:16;26.45;;;23.95;;
59300;SDS011;45073;52.740;6.784;2022-08-16T07:54:41;25.65;;;23.25;;
59300;SDS011;45073;52.740;6.784;2022-08-16T07:57:07;26.92;;;24.38;;
59300;SDS011;45073;52.740;6.784;2022-08-16T07:59:32;26.30;;;23.70;;
59300;SDS011;45073;52.740;6.784;2022-08-16T08:01:58;26.17;;;23.58;;
59300;SDS011;45073;52.740;6.784;2022-08-16T08:04:24;24.38;;;21.80;;
59300;SDS011;45073;52.740;6.784;2022-08-16T08:06:50;25.50;;;22.65;;
59300;SDS011;45073;52.740;6.784;2022-08-16T08:09:16;25.60;;;23.10;;
59300;SDS011;45073;52.740;6.784;2022-08-16T08:11:41;26.58;;;24.02;;
59300;SDS011;45073;52.740;6.784;2022-08-16T08:14:09;25.83;;;23.17;;
59300;SDS011;45073;52.740;6.784;2022-08-16T08:16:37;25.63;;;23.10;;
59300;SDS011;45073;52.740;6.784;2022-08-16T08:19:02;26.13;;;23.52;;
59300;SDS011;45073;52.740;6.784;2022-08-16T08:21:29;24.95;;;22.52;;
59300;SDS011;45073;52.740;6.784;2022-08-16T08:23:56;24.20;;;21.83;;
59300;SDS011;45073;52.740;6.784;2022-08-16T08:26:22;24.00;;;21.67;;
59300;SDS011;45073;52.740;6.784;2022-08-16T08:28:49;24.42;;;22.10;;
59300;SDS011;45073;52.740;6.784;2022-08-16T08:31:14;23.80;;;21.38;;
59300;SDS011;45073;52.740;6.784;2022-08-16T08:33:40;23.67;;;21.35;;
59300;SDS011;45073;52.740;6.784;2022-08-16T08:36:06;23.02;;;20.75;;
59300;SDS011;45073;52.740;6.784;2022-08-16T08:38:37;22.17;;;19.92;;
59300;SDS011;45073;52.740;6.784;2022-08-16T08:41:03;23.60;;;20.17;;
59300;SDS011;45073;52.740;6.784;2022-08-16T08:43:30;23.42;;;21.08;;
59300;SDS011;45073;52.740;6.784;2022-08-16T08:45:55;22.77;;;20.48;;
59300;SDS011;45073;52.740;6.784;2022-08-16T08:48:21;24.15;;;21.65;;
59300;SDS011;45073;52.740;6.784;2022-08-16T08:50:47;21.95;;;19.73;;
59300;SDS011;45073;52.740;6.784;2022-08-16T08:53:13;20.55;;;18.45;;
59300;SDS011;45073;52.740;6.784;2022-08-16T08:55:40;21.05;;;19.00;;
59300;SDS011;45073;52.740;6.784;2022-08-16T08:58:06;19.83;;;17.70;;
59300;SDS011;45073;52.740;6.784;2022-08-16T09:00:32;20.42;;;18.20;;
59300;SDS011;45073;52.740;6.784;2022-08-16T09:02:59;19.27;;;17.30;;
59300;SDS011;45073;52.740;6.784;2022-08-16T09:05:24;20.25;;;18.25;;
59300;SDS011;45073;52.740;6.784;2022-08-16T09:07:51;19.60;;;17.67;;
59300;SDS011;45073;52.740;6.784;2022-08-16T09:10:18;18.60;;;16.80;;
59300;SDS011;45073;52.740;6.784;2022-08-16T09:12:45;18.73;;;16.55;;
59300;SDS011;45073;52.740;6.784;2022-08-16T09:15:11;18.48;;;14.77;;
59300;SDS011;45073;52.740;6.784;2022-08-16T09:17:39;16.83;;;15.02;;
59300;SDS011;45073;52.740;6.784;2022-08-16T09:20:05;17.13;;;15.23;;
59300;SDS011;45073;52.740;6.784;2022-08-16T09:22:31;16.88;;;14.40;;
59300;SDS011;45073;52.740;6.784;2022-08-16T09:24:57;17.10;;;13.95;;
59300;SDS011;45073;52.740;6.784;2022-08-16T09:27:23;18.08;;;15.23;;
59300;SDS011;45073;52.740;6.784;2022-08-16T09:29:49;14.95;;;13.40;;
59300;SDS011;45073;52.740;6.784;2022-08-16T09:32:15;14.95;;;13.27;;
59300;SDS011;45073;52.740;6.784;2022-08-16T09:34:42;17.65;;;13.85;;
59300;SDS011;45073;52.740;6.784;2022-08-16T09:37:08;14.48;;;12.82;;
59300;SDS011;45073;52.740;6.784;2022-08-16T09:39:34;16.45;;;13.95;;
59300;SDS011;45073;52.740;6.784;2022-08-16T09:41:59;15.20;;;13.40;;
59300;SDS011;45073;52.740;6.784;2022-08-16T09:44:26;16.00;;;14.05;;
59300;SDS011;45073;52.740;6.784;2022-08-16T09:46:53;16.05;;;13.10;;
59300;SDS011;45073;52.740;6.784;2022-08-16T09:49:20;20.40;;;12.55;;
59300;SDS011;45073;52.740;6.784;2022-08-16T09:51:47;16.00;;;11.90;;
59300;SDS011;45073;52.740;6.784;2022-08-16T09:54:19;12.57;;;10.95;;
59300;SDS011;45073;52.740;6.784;2022-08-16T09:56:48;14.82;;;12.82;;
59300;SDS011;45073;52.740;6.784;2022-08-16T09:59:15;14.93;;;12.00;;
59300;SDS011;45073;52.740;6.784;2022-08-16T10:01:41;14.63;;;11.70;;
59300;SDS011;45073;52.740;6.784;2022-08-16T10:04:09;12.65;;;10.85;;
59300;SDS011;45073;52.740;6.784;2022-08-16T10:06:35;13.63;;;11.02;;
59300;SDS011;45073;52.740;6.784;2022-08-16T10:09:02;13.63;;;11.90;;
59300;SDS011;45073;52.740;6.784;2022-08-16T10:11:30;13.85;;;12.32;;
59300;SDS011;45073;52.740;6.784;2022-08-16T10:14:15;14.25;;;11.32;;
59300;SDS011;45073;52.740;6.784;2022-08-16T10:16:40;13.38;;;11.20;;
59300;SDS011;45073;52.740;6.784;2022-08-16T10:19:10;17.00;;;12.95;;
59300;SDS011;45073;52.740;6.784;2022-08-16T10:21:37;12.48;;;9.27;;
59300;SDS011;45073;52.740;6.784;2022-08-16T10:24:03;11.93;;;9.57;;
59300;SDS011;45073;52.740;6.784;2022-08-16T10:26:29;11.52;;;8.93;;
59300;SDS011;45073;52.740;6.784;2022-08-16T10:28:57;12.13;;;7.50;;
59300;SDS011;45073;52.740;6.784;2022-08-16T10:31:23;15.13;;;9.65;;
59300;SDS011;45073;52.740;6.784;2022-08-16T10:33:49;14.43;;;10.35;;
59300;SDS011;45073;52.740;6.784;2022-08-16T10:36:15;11.27;;;9.88;;
59300;SDS011;45073;52.740;6.784;2022-08-16T10:38:41;10.52;;;8.27;;
59300;SDS011;45073;52.740;6.784;2022-08-16T10:41:07;9.82;;;7.07;;
59300;SDS011;45073;52.740;6.784;2022-08-16T10:43:34;11.80;;;8.43;;
59300;SDS011;45073;52.740;6.784;2022-08-16T10:46:02;12.75;;;8.75;;
59300;SDS011;45073;52.740;6.784;2022-08-16T10:48:29;10.73;;;6.28;;
59300;SDS011;45073;52.740;6.784;2022-08-16T10:50:56;9.32;;;6.65;;
59300;SDS011;45073;52.740;6.784;2022-08-16T10:53:23;10.77;;;6.57;;
59300;SDS011;45073;52.740;6.784;2022-08-16T10:55:50;11.88;;;8.10;;
59300;SDS011;45073;52.740;6.784;2022-08-16T10:58:15;10.57;;;6.63;;
59300;SDS011;45073;52.740;6.784;2022-08-16T11:00:41;9.95;;;6.47;;
59300;SDS011;45073;52.740;6.784;2022-08-16T11:03:08;9.52;;;6.35;;
59300;SDS011;45073;52.740;6.784;2022-08-16T11:05:35;10.02;;;6.13;;
59300;SDS011;45073;52.740;6.784;2022-08-16T11:08:03;10.27;;;7.38;;
59300;SDS011;45073;52.740;6.784;2022-08-16T11:10:31;12.65;;;7.47;;
59300;SDS011;45073;52.740;6.784;2022-08-16T11:13:09;10.45;;;7.43;;
59300;SDS011;45073;52.740;6.784;2022-08-16T11:15:41;10.50;;;8.10;;
59300;SDS011;45073;52.740;6.784;2022-08-16T11:18:08;11.63;;;8.27;;
59300;SDS011;45073;52.740;6.784;2022-08-16T11:20:36;10.13;;;6.38;;
59300;SDS011;45073;52.740;6.784;2022-08-16T11:23:02;11.00;;;6.25;;
59300;SDS011;45073;52.740;6.784;2022-08-16T11:25:29;10.65;;;6.55;;
59300;SDS011;45073;52.740;6.784;2022-08-16T11:27:56;9.07;;;5.55;;
59300;SDS011;45073;52.740;6.784;2022-08-16T11:30:24;9.60;;;5.40;;
59300;SDS011;45073;52.740;6.784;2022-08-16T11:32:51;9.32;;;5.15;;
59300;SDS011;45073;52.740;6.784;2022-08-16T11:35:19;9.07;;;5.50;;
59300;SDS011;45073;52.740;6.784;2022-08-16T11:37:48;8.80;;;5.10;;
59300;SDS011;45073;52.740;6.784;2022-08-16T11:40:16;9.40;;;5.18;;
59300;SDS011;45073;52.740;6.784;2022-08-16T11:42:42;9.13;;;5.35;;
59300;SDS011;45073;52.740;6.784;2022-08-16T11:45:08;8.82;;;5.40;;
59300;SDS011;45073;52.740;6.784;2022-08-16T11:47:35;10.27;;;5.53;;
59300;SDS011;45073;52.740;6.784;2022-08-16T11:50:01;9.20;;;5.60;;
59300;SDS011;45073;52.740;6.784;2022-08-16T11:52:34;9.15;;;4.50;;
59300;SDS011;45073;52.740;6.784;2022-08-16T11:55:00;7.50;;;3.67;;
59300;SDS011;45073;52.740;6.784;2022-08-16T11:57:27;6.97;;;3.40;;
59300;SDS011;45073;52.740;6.784;2022-08-16T11:59:54;10.32;;;4.05;;
59300;SDS011;45073;52.740;6.784;2022-08-16T12:02:19;9.90;;;3.85;;
59300;SDS011;45073;52.740;6.784;2022-08-16T12:04:45;10.10;;;3.80;;
59300;SDS011;45073;52.740;6.784;2022-08-16T12:07:11;7.65;;;3.65;;
59300;SDS011;45073;52.740;6.784;2022-08-16T12:09:38;8.27;;;3.53;;
59300;SDS011;45073;52.740;6.784;2022-08-16T12:12:04;6.60;;;3.20;;
59300;SDS011;45073;52.740;6.784;2022-08-16T12:14:30;7.88;;;3.03;;
59300;SDS011;45073;52.740;6.784;2022-08-16T12:16:57;6.95;;;3.28;;
59300;SDS011;45073;52.740;6.784;2022-08-16T12:19:24;7.35;;;3.45;;
59300;SDS011;45073;52.740;6.784;2022-08-16T12:21:50;8.88;;;3.42;;
59300;SDS011;45073;52.740;6.784;2022-08-16T12:24:15;7.22;;;3.58;;
59300;SDS011;45073;52.740;6.784;2022-08-16T12:26:41;7.25;;;3.60;;
59300;SDS011;45073;52.740;6.784;2022-08-16T12:29:07;8.75;;;3.30;;
59300;SDS011;45073;52.740;6.784;2022-08-16T12:31:33;6.68;;;3.55;;
59300;SDS011;45073;52.740;6.784;2022-08-16T12:34:00;9.52;;;3.65;;
59300;SDS011;45073;52.740;6.784;2022-08-16T12:36:26;8.68;;;3.53;;
59300;SDS011;45073;52.740;6.784;2022-08-16T12:38:52;8.30;;;3.58;;
59300;SDS011;45073;52.740;6.784;2022-08-16T12:41:19;7.78;;;3.75;;
59300;SDS011;45073;52.740;6.784;2022-08-16T12:43:45;10.05;;;3.55;;
59300;SDS011;45073;52.740;6.784;2022-08-16T12:46:10;7.50;;;3.92;;
59300;SDS011;45073;52.740;6.784;2022-08-16T12:48:37;7.65;;;3.60;;
59300;SDS011;45073;52.740;6.784;2022-08-16T12:51:23;8.30;;;3.90;;
59300;SDS011;45073;52.740;6.784;2022-08-16T12:53:56;8.27;;;3.95;;
59300;SDS011;45073;52.740;6.784;2022-08-16T12:56:26;7.47;;;3.33;;
59300;SDS011;45073;52.740;6.784;2022-08-16T12:58:53;6.90;;;3.25;;
59300;SDS011;45073;52.740;6.784;2022-08-16T13:01:21;8.35;;;3.85;;
59300;SDS011;45073;52.740;6.784;2022-08-16T13:03:51;9.38;;;3.70;;
59300;SDS011;45073;52.740;6.784;2022-08-16T13:06:20;6.95;;;3.10;;
59300;SDS011;45073;52.740;6.784;2022-08-16T13:08:46;6.28;;;3.17;;
59300;SDS011;45073;52.740;6.784;2022-08-16T13:11:12;9.57;;;3.95;;
59300;SDS011;45073;52.740;6.784;2022-08-16T13:13:40;7.35;;;3.53;;
59300;SDS011;45073;52.740;6.784;2022-08-16T13:16:05;7.07;;;3.72;;
59300;SDS011;45073;52.740;6.784;2022-08-16T13:18:31;8.30;;;3.33;;
59300;SDS011;45073;52.740;6.784;2022-08-16T13:21:00;8.25;;;3.80;;
59300;SDS011;45073;52.740;6.784;2022-08-16T13:23:30;8.00;;;4.40;;
59300;SDS011;45073;52.740;6.784;2022-08-16T13:25:56;8.63;;;4.25;;
59300;SDS011;45073;52.740;6.784;2022-08-16T13:28:22;10.98;;;5.25;;
59300;SDS011;45073;52.740;6.784;2022-08-16T13:30:49;9.27;;;5.90;;
59300;SDS011;45073;52.740;6.784;2022-08-16T13:33:17;9.45;;;5.20;;
59300;SDS011;45073;52.740;6.784;2022-08-16T13:35:46;10.20;;;5.32;;
59300;SDS011;45073;52.740;6.784;2022-08-16T13:38:14;8.90;;;5.10;;
59300;SDS011;45073;52.740;6.784;2022-08-16T13:40:40;9.70;;;5.00;;
59300;SDS011;45073;52.740;6.784;2022-08-16T13:43:06;12.57;;;4.55;;
59300;SDS011;45073;52.740;6.784;2022-08-16T13:45:31;8.68;;;4.28;;
59300;SDS011;45073;52.740;6.784;2022-08-16T13:47:57;10.93;;;5.05;;
59300;SDS011;45073;52.740;6.784;2022-08-16T13:50:23;8.07;;;4.43;;
59300;SDS011;45073;52.740;6.784;2022-08-16T13:52:52;10.68;;;4.25;;
59300;SDS011;45073;52.740;6.784;2022-08-16T13:55:18;9.15;;;4.40;;
59300;SDS011;45073;52.740;6.784;2022-08-16T13:57:43;8.68;;;3.90;;
59300;SDS011;45073;52.740;6.784;2022-08-16T14:00:09;8.60;;;4.20;;
59300;SDS011;45073;52.740;6.784;2022-08-16T14:02:35;10.90;;;3.90;;
59300;SDS011;45073;52.740;6.784;2022-08-16T14:05:02;9.93;;;4.00;;
59300;SDS011;45073;52.740;6.784;2022-08-16T14:07:28;9.32;;;4.13;;
59300;SDS011;45073;52.740;6.784;2022-08-16T14:09:54;8.80;;;4.40;;
59300;SDS011;45073;52.740;6.784;2022-08-16T14:12:22;8.05;;;4.72;;
59300;SDS011;45073;52.740;6.784;2022-08-16T14:14:51;8.65;;;4.20;;
59300;SDS011;45073;52.740;6.784;2022-08-16T14:17:17;10.10;;;4.00;;
59300;SDS011;45073;52.740;6.784;2022-08-16T14:19:44;8.25;;;4.13;;
59300;SDS011;45073;52.740;6.784;2022-08-16T14:22:14;7.00;;;3.97;;
59300;SDS011;45073;52.740;6.784;2022-08-16T14:24:46;10.70;;;4.15;;
59300;SDS011;45073;52.740;6.784;2022-08-16T14:27:17;9.30;;;3.97;;
59300;SDS011;45073;52.740;6.784;2022-08-16T14:29:45;10.77;;;4.30;;